createdAt,value
2023-03-17T00:01:02.963Z,71.37
2023-03-17T00:02:43.312Z,71.14
2023-03-17T00:04:23.561Z,71.42
2023-03-17T00:06:04.023Z,71.37
2023-03-17T00:07:44.384Z,71.56
2023-03-17T00:09:24.788Z,71.57
2023-03-17T00:11:05.204Z,71.45
2023-03-17T00:12:45.587Z,71.78
2023-03-17T00:14:25.988Z,71.53
2023-03-17T00:16:06.361Z,71.39
2023-03-17T00:17:46.812Z,71.38
2023-03-17T00:19:27.326Z,71.18
2023-03-17T00:21:07.694Z,71.24
2023-03-17T00:22:48.111Z,71.29
2023-03-17T00:24:28.674Z,71.46
2023-03-17T00:26:08.946Z,71.61
2023-03-17T00:27:49.272Z,71.49
2023-03-17T00:29:29.665Z,71.5
2023-03-17T00:31:10.134Z,71.69
2023-03-17T00:32:50.480Z,71.85
2023-03-17T00:34:30.823Z,72.15
2023-03-17T00:36:11.159Z,72.23
2023-03-17T00:37:51.547Z,72.23
2023-03-17T00:39:31.952Z,72.4
2023-03-17T00:41:12.430Z,72.54
2023-03-17T00:42:52.713Z,72.23
2023-03-17T00:44:32.978Z,71.99
2023-03-17T00:46:13.402Z,72.01
2023-03-17T00:47:53.765Z,72.06
2023-03-17T00:49:34.133Z,72.03
2023-03-17T00:51:14.386Z,72.02
2023-03-17T00:52:54.796Z,71.99
2023-03-17T00:54:35.134Z,71.58
2023-03-17T00:56:15.509Z,71.61
2023-03-17T00:57:55.888Z,71.56
2023-03-17T00:59:36.368Z,71.19
2023-03-17T01:01:16.820Z,71.19
2023-03-17T01:02:57.281Z,71.12
2023-03-17T01:04:37.566Z,70.6
2023-03-17T01:06:18.032Z,70.7
2023-03-17T01:07:58.390Z,70.67
2023-03-17T01:09:38.769Z,70.7
2023-03-17T01:11:19.151Z,70.38
2023-03-17T01:12:59.595Z,70.26
2023-03-17T01:14:39.969Z,70.11
2023-03-17T01:16:20.471Z,69.76
2023-03-17T01:18:00.802Z,69.67
2023-03-17T01:19:41.213Z,69.61
2023-03-17T01:21:21.678Z,69.36
2023-03-17T01:23:02.028Z,69.52
2023-03-17T01:24:42.423Z,69.74
2023-03-17T01:26:25.647Z,69.93
2023-03-17T01:28:03.094Z,70.14
2023-03-17T01:29:43.357Z,70.06
2023-03-17T01:31:23.804Z,70.33
2023-03-17T01:33:04.365Z,70.17
2023-03-17T01:34:44.658Z,70.04
2023-03-17T01:36:25.035Z,69.79
2023-03-17T01:38:05.425Z,69.74
2023-03-17T01:39:45.871Z,69.72
2023-03-17T01:41:26.204Z,70.01
2023-03-17T01:43:06.682Z,69.96
2023-03-17T01:44:47.035Z,69.98
2023-03-17T01:46:27.652Z,69.85
2023-03-17T01:48:07.825Z,70.13
2023-03-17T01:49:48.168Z,70.17
2023-03-17T01:51:28.608Z,70.01
2023-03-17T01:53:09.002Z,70.11
2023-03-17T01:54:49.443Z,70.5
2023-03-17T01:56:29.864Z,70.39
2023-03-17T01:58:10.218Z,70.34
2023-03-17T01:59:50.665Z,70.48
2023-03-17T02:01:31.008Z,70.82
2023-03-17T02:03:11.462Z,71.23
2023-03-17T02:04:51.920Z,71.6
2023-03-17T02:06:32.302Z,71.67
2023-03-17T02:08:12.743Z,71.97
2023-03-17T02:09:53.113Z,72.08
2023-03-17T02:11:33.430Z,72.31
2023-03-17T02:13:13.813Z,72.58
2023-03-17T02:14:54.266Z,72.73
2023-03-17T02:16:34.744Z,72.73
2023-03-17T02:18:15.085Z,72.83
2023-03-17T02:19:55.455Z,72.94
2023-03-17T02:21:35.845Z,72.88
2023-03-17T02:23:16.240Z,72.83
2023-03-17T02:24:56.643Z,72.7
2023-03-17T02:26:37.096Z,72.8
2023-03-17T02:28:17.466Z,72.77
2023-03-17T02:29:57.912Z,72.67
2023-03-17T02:31:38.286Z,72.6
2023-03-17T02:33:18.742Z,72.5
2023-03-17T02:34:59.199Z,72.36
2023-03-17T02:36:39.697Z,72.45
2023-03-17T02:38:19.992Z,72.44
2023-03-17T02:40:00.397Z,72.32
2023-03-17T02:41:40.776Z,72.45
2023-03-17T02:43:21.199Z,72.57
2023-03-17T02:45:01.653Z,72.5
2023-03-17T02:46:41.966Z,72.4
2023-03-17T02:48:22.306Z,72.31
2023-03-17T02:50:02.701Z,72.14
2023-03-17T02:51:43.123Z,71.91
2023-03-17T02:53:23.511Z,71.64
2023-03-17T02:55:03.879Z,71.58
2023-03-17T02:56:44.210Z,71.44
2023-03-17T02:58:24.624Z,71.35
2023-03-17T03:00:05.039Z,71.21
2023-03-17T03:01:45.488Z,70.95
2023-03-17T03:03:25.782Z,70.81
2023-03-17T03:05:06.221Z,70.96
2023-03-17T03:06:46.574Z,70.9
2023-03-17T03:08:26.939Z,71.12
2023-03-17T03:10:07.412Z,71.16
2023-03-17T03:11:47.714Z,71.23
2023-03-17T03:13:28.116Z,71.34
2023-03-17T03:15:08.467Z,71.71
2023-03-17T03:16:48.873Z,71.66
2023-03-17T03:18:29.313Z,71.67
2023-03-17T03:20:09.767Z,71.86
2023-03-17T03:21:50.181Z,72.04
2023-03-17T03:23:30.576Z,72.1
2023-03-17T03:25:11.009Z,72.13
2023-03-17T03:26:51.288Z,72.05
2023-03-17T03:28:31.613Z,72.1
2023-03-17T03:30:12.088Z,72.07
2023-03-17T03:31:52.550Z,72.19
2023-03-17T03:33:33.015Z,72.32
2023-03-17T03:35:13.376Z,72.27
2023-03-17T03:36:53.869Z,72.51
2023-03-17T03:38:34.270Z,72.49
2023-03-17T03:40:14.668Z,72.49
2023-03-17T03:41:55.088Z,72.55
2023-03-17T03:43:35.504Z,72.46
2023-03-17T03:45:15.929Z,72.29
2023-03-17T03:46:56.381Z,71.93
2023-03-17T03:48:36.752Z,71.69
2023-03-17T03:50:17.134Z,71.58
2023-03-17T03:51:57.491Z,71.78
2023-03-17T03:53:37.867Z,72.05
2023-03-17T03:55:18.252Z,72.12
2023-03-17T03:56:58.657Z,72.28
2023-03-17T03:58:39.073Z,72.49
2023-03-17T04:00:19.496Z,72.43
2023-03-17T04:01:59.822Z,72.59
2023-03-17T04:03:40.133Z,72.43
2023-03-17T04:05:20.555Z,72.35
2023-03-17T04:07:00.975Z,72.49
2023-03-17T04:08:41.362Z,72.49
2023-03-17T04:10:21.877Z,72.83
2023-03-17T04:12:02.299Z,73.21
2023-03-17T04:13:42.770Z,73.38
2023-03-17T04:15:23.158Z,73.8
2023-03-17T04:17:03.568Z,74.1
2023-03-17T04:18:44.033Z,74.38
2023-03-17T04:20:24.456Z,74.62
2023-03-17T04:22:04.880Z,74.83
2023-03-17T04:23:45.207Z,75.09
2023-03-17T04:25:25.694Z,75.16
2023-03-17T04:27:06.395Z,75.31
2023-03-17T04:28:46.446Z,75.48
2023-03-17T04:30:26.784Z,75.54
2023-03-17T04:32:07.172Z,75.58
2023-03-17T04:33:47.610Z,75.59
2023-03-17T04:35:27.925Z,75.93
2023-03-17T04:37:08.247Z,75.94
2023-03-17T04:38:48.596Z,76.17
2023-03-17T04:40:29.286Z,76.23
2023-03-17T04:42:09.455Z,76.19
2023-03-17T04:43:49.758Z,75.94
2023-03-17T04:45:30.194Z,75.5
2023-03-17T04:47:10.560Z,75.29
2023-03-17T04:48:50.907Z,75.16
2023-03-17T04:50:31.578Z,75.18
2023-03-17T04:52:11.643Z,75.1
2023-03-17T04:53:52.136Z,74.8
2023-03-17T04:55:32.523Z,74.65
2023-03-17T04:57:12.977Z,74.5
2023-03-17T04:58:53.381Z,74.5
2023-03-17T05:00:33.819Z,73.96
2023-03-17T05:02:14.292Z,73.73
2023-03-17T05:03:54.688Z,73.6
2023-03-17T05:05:35.074Z,73.7
2023-03-17T05:07:15.475Z,73.77
2023-03-17T05:08:55.958Z,73.93
2023-03-17T05:10:36.346Z,74.02
2023-03-17T05:12:16.711Z,73.93
2023-03-17T05:13:57.140Z,73.86
2023-03-17T05:15:37.474Z,74.08
2023-03-17T05:17:17.784Z,74.25
2023-03-17T05:18:58.184Z,74.31
2023-03-17T05:20:38.424Z,74.53
2023-03-17T05:22:18.753Z,74.72
2023-03-17T05:23:59.063Z,74.84
2023-03-17T05:25:39.391Z,75.02
2023-03-17T05:27:19.719Z,75.09
2023-03-17T05:29:00.019Z,75.22
2023-03-17T05:30:40.480Z,75.38
2023-03-17T05:32:20.919Z,75.68
2023-03-17T05:34:01.291Z,75.92
2023-03-17T05:35:41.889Z,76.17
2023-03-17T05:37:22.208Z,76.3
2023-03-17T05:39:02.571Z,76.5
2023-03-17T05:40:42.906Z,76.68
2023-03-17T05:42:23.343Z,76.85
2023-03-17T05:44:03.737Z,76.94
2023-03-17T05:45:44.247Z,76.94
2023-03-17T05:47:24.614Z,77.21
2023-03-17T05:49:05.053Z,77.46
2023-03-17T05:50:45.472Z,77.48
2023-03-17T05:52:25.901Z,77.61
2023-03-17T05:54:06.246Z,77.76
2023-03-17T05:55:46.672Z,77.95
2023-03-17T05:57:27.054Z,77.74
2023-03-17T05:59:07.425Z,77.54
2023-03-17T06:00:47.836Z,77.17
2023-03-17T06:02:28.262Z,77.07
2023-03-17T06:04:08.538Z,76.79
2023-03-17T06:05:48.873Z,76.43
2023-03-17T06:07:38.182Z,76.23
2023-03-17T06:09:09.478Z,76.08
2023-03-17T06:10:49.773Z,76.27
2023-03-17T06:12:30.072Z,76.23
2023-03-17T06:14:10.417Z,76.06
2023-03-17T06:15:50.768Z,76.31
2023-03-17T06:17:31.054Z,76.7
2023-03-17T06:19:11.402Z,76.88
2023-03-17T06:20:51.855Z,77.04
2023-03-17T06:22:32.261Z,77.21
2023-03-17T06:24:12.693Z,77.25
2023-03-17T06:25:53.128Z,77.42
2023-03-17T06:27:33.537Z,77.61
2023-03-17T06:29:14.000Z,77.62
2023-03-17T06:30:54.496Z,77.59
2023-03-17T06:32:34.884Z,77.48
2023-03-17T06:34:15.330Z,77.17
2023-03-17T06:35:55.824Z,76.78
2023-03-17T06:37:36.267Z,76.54
2023-03-17T06:39:16.638Z,76.14
2023-03-17T06:40:57.097Z,75.76
2023-03-17T06:42:37.457Z,76.04
2023-03-17T06:44:17.847Z,75.83
2023-03-17T06:45:58.471Z,75.57
2023-03-17T06:47:38.602Z,75.24
2023-03-17T06:49:18.981Z,75.09
2023-03-17T06:50:59.357Z,74.99
2023-03-17T06:52:39.755Z,74.95
2023-03-17T06:54:20.112Z,74.57
2023-03-17T06:56:00.599Z,75.13
2023-03-17T06:57:41.016Z,75.03
2023-03-17T06:59:21.417Z,74.78
2023-03-17T07:01:01.836Z,73.82
2023-03-17T07:02:42.344Z,73.04
2023-03-17T07:04:22.727Z,72.94
2023-03-17T07:06:03.145Z,72.15
2023-03-17T07:07:43.528Z,72.05
2023-03-17T07:09:23.852Z,71.08
2023-03-17T07:11:04.266Z,70.78
2023-03-17T07:12:44.599Z,70.06
2023-03-17T07:14:24.911Z,70.24
2023-03-17T07:16:05.410Z,69
2023-03-17T07:17:45.823Z,69.14
2023-03-17T07:19:26.177Z,68.54
2023-03-17T07:21:06.531Z,67.92
2023-03-17T07:22:46.980Z,66.84
2023-03-17T07:24:27.338Z,66.71
2023-03-17T07:26:07.782Z,66.14
2023-03-17T07:27:48.213Z,66.9
2023-03-17T07:29:28.603Z,66.3
2023-03-17T07:31:09.212Z,66.17
2023-03-17T07:32:49.588Z,66.14
2023-03-17T07:34:29.911Z,65.07
2023-03-17T07:36:10.377Z,64.71
2023-03-17T07:37:50.731Z,64.16
2023-03-17T07:39:31.145Z,63.8
2023-03-17T07:41:11.522Z,63.74
2023-03-17T07:42:51.852Z,63.61
2023-03-17T07:44:32.230Z,64.46
2023-03-17T07:46:12.741Z,64.79
2023-03-17T07:47:53.092Z,63.67
2023-03-17T07:49:41.264Z,63.2
2023-03-17T07:51:13.871Z,62.96
2023-03-17T07:52:54.412Z,63.82
2023-03-17T07:54:34.765Z,63.83
2023-03-17T07:56:15.199Z,62.22
2023-03-17T07:57:55.723Z,62.62
2023-03-17T07:59:36.003Z,63.16
2023-03-17T08:01:16.436Z,61.58
2023-03-17T08:03:09.503Z,61.68
2023-03-17T08:04:37.257Z,61.33
2023-03-17T08:06:17.709Z,58.98
2023-03-17T08:07:58.074Z,58.92
2023-03-17T08:09:38.512Z,58.55
2023-03-17T08:11:18.923Z,57.76
2023-03-17T08:12:59.216Z,56.81
2023-03-17T08:14:39.607Z,56.86
2023-03-17T08:16:20.060Z,56.4
2023-03-17T08:18:00.384Z,55.69
2023-03-17T08:19:40.738Z,54.63
2023-03-17T08:21:21.054Z,54.47
2023-03-17T08:23:01.376Z,54.23
2023-03-17T08:24:41.702Z,54.04
2023-03-17T08:26:21.995Z,53.55
2023-03-17T08:28:02.275Z,52.53
2023-03-17T08:29:42.729Z,50.84
2023-03-17T08:31:23.236Z,51.57
2023-03-17T08:33:03.635Z,50.3
2023-03-17T08:34:43.983Z,50.26
2023-03-17T08:36:24.372Z,50.07
2023-03-17T08:38:04.739Z,50.15
2023-03-17T08:39:45.176Z,50.12
2023-03-17T08:41:25.541Z,50.41
2023-03-17T08:43:05.975Z,48.55
2023-03-17T08:44:46.440Z,48.8
2023-03-17T08:46:26.909Z,48.53
2023-03-17T08:48:07.246Z,48.64
2023-03-17T08:49:47.695Z,48.16
2023-03-17T08:51:28.073Z,47.52
2023-03-17T08:53:08.498Z,47.45
2023-03-17T08:54:48.868Z,47.26
2023-03-17T08:56:29.420Z,46.53
2023-03-17T08:58:09.788Z,46.92
2023-03-17T08:59:50.196Z,46.87
2023-03-17T09:01:30.683Z,47.09
2023-03-17T09:03:11.024Z,46.32
2023-03-17T09:04:51.361Z,46.73
2023-03-17T09:06:31.722Z,46.39
2023-03-17T09:08:12.182Z,45.87
2023-03-17T09:09:52.549Z,45.99
2023-03-17T09:11:32.909Z,46.06
2023-03-17T09:13:13.282Z,46.41
2023-03-17T09:14:53.721Z,46.94
2023-03-17T09:16:34.328Z,46.14
2023-03-17T09:18:14.495Z,46.47
2023-03-17T09:19:54.960Z,46.81
2023-03-17T09:21:35.313Z,46.79
2023-03-17T09:23:15.736Z,46.79
2023-03-17T09:24:56.125Z,46.79
2023-03-17T09:26:36.588Z,46.09
2023-03-17T09:28:17.053Z,46.72
2023-03-17T09:29:57.449Z,46.85
2023-03-17T09:31:37.863Z,47.34
2023-03-17T09:33:18.259Z,47.06
2023-03-17T09:34:58.675Z,47.52
2023-03-17T09:36:39.157Z,46.37
2023-03-17T09:38:19.663Z,45.31
2023-03-17T09:40:00.109Z,45.32
2023-03-17T09:41:40.570Z,45.03
2023-03-17T09:43:20.968Z,45.22
2023-03-17T09:45:01.332Z,45.76
2023-03-17T09:46:41.791Z,45.01
2023-03-17T09:48:22.227Z,44.58
2023-03-17T09:50:02.665Z,43.31
2023-03-17T09:51:43.092Z,43.87
2023-03-17T09:53:23.601Z,43.55
2023-03-17T09:55:03.974Z,42.94
2023-03-17T09:56:44.433Z,42.31
2023-03-17T09:58:24.858Z,42.37
2023-03-17T10:00:05.207Z,42.24
2023-03-17T10:01:45.589Z,42.72
2023-03-17T10:03:26.057Z,42.07
2023-03-17T10:05:06.439Z,41.06
2023-03-17T10:06:46.803Z,41.12
2023-03-17T10:08:31.668Z,41.07
2023-03-17T10:10:07.400Z,40.96
2023-03-17T10:11:47.692Z,41.06
2023-03-17T10:13:28.005Z,41.64
2023-03-17T10:15:08.284Z,40.62
2023-03-17T10:16:48.621Z,41.82
2023-03-17T10:18:28.998Z,40.97
2023-03-17T10:20:09.369Z,41.77
2023-03-17T10:21:49.745Z,41.41
2023-03-17T10:23:30.165Z,40.02
2023-03-17T10:25:10.555Z,40.45
2023-03-17T10:26:51.031Z,40.46
2023-03-17T10:28:31.378Z,40.87
2023-03-17T10:30:11.805Z,41.54
2023-03-17T10:31:52.259Z,40.69
2023-03-17T10:33:32.624Z,39.72
2023-03-17T10:35:12.930Z,39.74
2023-03-17T10:36:53.290Z,40.47
2023-03-17T10:38:33.627Z,39.37
2023-03-17T10:40:13.975Z,39.34
2023-03-17T10:41:54.334Z,39.8
2023-03-17T10:43:34.753Z,39.69
2023-03-17T10:45:15.242Z,40.02
2023-03-17T10:46:55.852Z,39.56
2023-03-17T10:48:36.204Z,39.33
2023-03-17T10:50:16.627Z,40.09
2023-03-17T10:51:57.036Z,39.06
2023-03-17T10:53:37.456Z,39.25
2023-03-17T10:55:17.804Z,38.9
2023-03-17T10:56:59.249Z,39.72
2023-03-17T10:58:38.607Z,37.89
2023-03-17T11:00:19.262Z,39.54
2023-03-17T11:01:59.374Z,39.94
2023-03-17T11:03:39.879Z,38.4
2023-03-17T11:05:20.196Z,38.95
2023-03-17T11:07:00.634Z,38.59
2023-03-17T11:08:41.069Z,39.63
2023-03-17T11:10:21.466Z,38.3
2023-03-17T11:12:01.881Z,38.44
2023-03-17T11:13:42.247Z,39.68
2023-03-17T11:15:22.690Z,39.11
2023-03-17T11:17:03.116Z,38.11
2023-03-17T11:18:43.490Z,37.82
2023-03-17T11:20:23.868Z,37.88
2023-03-17T11:22:04.230Z,38.04
2023-03-17T11:23:44.545Z,38.02
2023-03-17T11:25:24.871Z,38.51
2023-03-17T11:27:05.276Z,38.43
2023-03-17T11:28:45.699Z,37.95
2023-03-17T11:30:26.147Z,38.45
2023-03-17T11:32:06.641Z,39.28
2023-03-17T11:33:46.951Z,39.27
2023-03-17T11:35:27.425Z,38.77
2023-03-17T11:37:07.889Z,39.59
2023-03-17T11:38:48.164Z,38.25
2023-03-17T11:40:29.039Z,38.58
2023-03-17T11:42:09.007Z,38.29
2023-03-17T11:43:49.452Z,38.37
2023-03-17T11:45:29.776Z,38.77
2023-03-17T11:47:10.094Z,38.94
2023-03-17T11:48:50.537Z,37.83
2023-03-17T11:50:31.453Z,37.75
2023-03-17T11:52:11.283Z,37.89
2023-03-17T11:53:51.697Z,38.22
2023-03-17T11:55:32.127Z,37.72
2023-03-17T11:57:12.565Z,38.91
2023-03-17T11:58:52.900Z,38.36
2023-03-17T12:00:33.954Z,38.83
2023-03-17T12:02:13.491Z,39.24
2023-03-17T12:03:53.834Z,37.57
2023-03-17T12:05:34.098Z,38.65
2023-03-17T12:07:14.577Z,37.76
2023-03-17T12:08:54.978Z,36.91
2023-03-17T12:10:35.387Z,36.84
2023-03-17T12:12:16.344Z,38.1
2023-03-17T12:13:56.167Z,39.02
2023-03-17T12:15:36.701Z,39.04
2023-03-17T12:17:17.124Z,38.24
2023-03-17T12:18:57.590Z,37.62
2023-03-17T12:20:38.034Z,37.81
2023-03-17T12:22:18.502Z,38.48
2023-03-17T12:23:58.918Z,37.34
2023-03-17T12:25:39.352Z,37.87
2023-03-17T12:27:19.768Z,37.99
2023-03-17T12:29:00.163Z,38.68
2023-03-17T12:30:40.642Z,39.34
2023-03-17T12:32:21.086Z,38.54
2023-03-17T12:34:01.511Z,39.34
2023-03-17T12:35:41.965Z,39.43
2023-03-17T12:37:22.203Z,39.6
2023-03-17T12:39:02.576Z,40.44
2023-03-17T12:40:42.970Z,41.15
2023-03-17T12:42:23.349Z,41.62
2023-03-17T12:44:03.766Z,40.86
2023-03-17T12:45:44.039Z,40.97
2023-03-17T12:47:24.359Z,40.96
2023-03-17T12:49:04.687Z,40.99
2023-03-17T12:50:45.111Z,41.45
2023-03-17T12:52:25.490Z,42.48
2023-03-17T12:54:05.847Z,41.24
2023-03-17T12:55:46.190Z,41.54
2023-03-17T12:57:26.581Z,41.44
2023-03-17T12:59:07.047Z,42.41
2023-03-17T13:00:47.419Z,42.49
2023-03-17T13:02:27.819Z,42.04
2023-03-17T13:04:08.198Z,40.76
2023-03-17T13:05:48.669Z,40.35
2023-03-17T13:07:29.109Z,41.42
2023-03-17T13:09:09.528Z,41.54
2023-03-17T13:10:50.005Z,41.12
2023-03-17T13:12:30.358Z,40.72
2023-03-17T13:14:10.775Z,40.24
2023-03-17T13:15:51.265Z,40.31
2023-03-17T13:17:31.672Z,40.64
2023-03-17T13:19:11.930Z,41.12
2023-03-17T13:20:52.364Z,40.38
2023-03-17T13:22:32.717Z,40.26
2023-03-17T13:24:13.153Z,41.19
2023-03-17T13:25:53.804Z,41.5
2023-03-17T13:27:33.928Z,41.92
2023-03-17T13:29:14.333Z,43.32
2023-03-17T13:30:54.786Z,44.41
2023-03-17T13:32:35.264Z,44.57
2023-03-17T13:34:15.625Z,45.33
2023-03-17T13:35:56.076Z,44.43
2023-03-17T13:37:36.405Z,44.69
2023-03-17T13:39:19.671Z,44.54
2023-03-17T13:40:57.173Z,44.86
2023-03-17T13:42:37.582Z,44.8
2023-03-17T13:44:17.972Z,44.8
2023-03-17T13:45:58.424Z,44.77
2023-03-17T13:47:38.770Z,45.22
2023-03-17T13:49:19.049Z,45.59
2023-03-17T13:50:59.320Z,45.94
2023-03-17T13:52:39.722Z,45.57
2023-03-17T13:54:20.038Z,45.55
2023-03-17T13:56:00.435Z,45.91
2023-03-17T13:57:40.777Z,45.02
2023-03-17T13:59:21.255Z,44.79
2023-03-17T14:01:01.817Z,45.16
2023-03-17T14:02:42.197Z,44.37
2023-03-17T14:04:22.685Z,43.83
2023-03-17T14:06:03.098Z,44.24
2023-03-17T14:07:43.455Z,44.63
2023-03-17T14:09:23.783Z,44.48
2023-03-17T14:11:04.268Z,44.32
2023-03-17T14:12:44.668Z,44.78
2023-03-17T14:14:32.939Z,43.7
2023-03-17T14:16:05.629Z,44.2
2023-03-17T14:17:45.929Z,43.89
2023-03-17T14:19:26.353Z,43.64
2023-03-17T14:21:10.462Z,43.37
2023-03-17T14:22:47.155Z,43.02
2023-03-17T14:24:27.582Z,43.31
2023-03-17T14:26:07.874Z,43.47
2023-03-17T14:27:48.284Z,43.32
2023-03-17T14:29:28.692Z,43.42
2023-03-17T14:31:09.104Z,43.52
2023-03-17T14:32:49.648Z,44.55
2023-03-17T14:34:29.935Z,44.35
2023-03-17T14:36:12.252Z,44.32
2023-03-17T14:37:50.773Z,43.68
2023-03-17T14:39:31.193Z,43.93
2023-03-17T14:41:11.643Z,43.56
2023-03-17T14:42:52.025Z,44
2023-03-17T14:44:32.328Z,43.71
2023-03-17T14:46:12.774Z,43.33
2023-03-17T14:47:53.077Z,44.26
2023-03-17T14:49:33.445Z,44.48
2023-03-17T14:51:13.815Z,44.23
2023-03-17T14:52:54.283Z,45.25
2023-03-17T14:54:34.722Z,45.02
2023-03-17T14:56:15.168Z,44.84
2023-03-17T14:57:55.569Z,45.17
2023-03-17T14:59:35.867Z,45.22
2023-03-17T15:01:16.269Z,46.24
2023-03-17T15:02:56.611Z,45.36
2023-03-17T15:04:37.036Z,45.51
2023-03-17T15:06:17.417Z,45.2
2023-03-17T15:07:57.873Z,45.83
2023-03-17T15:09:38.182Z,45.29
2023-03-17T15:11:18.557Z,44.67
2023-03-17T15:12:58.957Z,45.87
2023-03-17T15:14:39.468Z,44.69
2023-03-17T15:16:19.870Z,45.14
2023-03-17T15:18:00.193Z,45.07
2023-03-17T15:19:40.590Z,44.58
2023-03-17T15:21:21.035Z,45.25
2023-03-17T15:23:01.390Z,45.78
2023-03-17T15:24:41.806Z,45.49
2023-03-17T15:26:22.286Z,46.02
2023-03-17T15:28:02.572Z,46
2023-03-17T15:29:42.925Z,46.5
2023-03-17T15:31:23.428Z,46.95
2023-03-17T15:33:03.767Z,46.88
2023-03-17T15:34:44.166Z,47.08
2023-03-17T15:36:32.307Z,46.67
2023-03-17T15:38:04.725Z,46.08
2023-03-17T15:39:45.110Z,46.5
2023-03-17T15:41:25.418Z,45.26
2023-03-17T15:43:05.766Z,44.68
2023-03-17T15:44:46.134Z,46.2
2023-03-17T15:46:26.595Z,44.55
2023-03-17T15:48:07.026Z,45.19
2023-03-17T15:49:47.351Z,45.63
2023-03-17T15:51:27.779Z,45.43
2023-03-17T15:53:08.151Z,45.87
2023-03-17T15:54:48.590Z,45.19
2023-03-17T15:56:28.915Z,44.89
2023-03-17T15:58:09.252Z,43.55
2023-03-17T15:59:49.659Z,42.63
2023-03-17T16:01:30.113Z,41.82
2023-03-17T16:03:10.401Z,41.88
2023-03-17T16:04:50.838Z,41.61
2023-03-17T16:06:31.266Z,42.41
2023-03-17T16:08:11.641Z,41.99
2023-03-17T16:09:52.115Z,42.2
2023-03-17T16:11:32.518Z,42.71
2023-03-17T16:13:13.029Z,42.19
2023-03-17T16:14:53.325Z,42.21
2023-03-17T16:16:33.608Z,42.62
2023-03-17T16:18:14.032Z,42.08
2023-03-17T16:19:54.402Z,42.54
2023-03-17T16:21:34.687Z,42.22
2023-03-17T16:23:15.135Z,42.99
2023-03-17T16:24:55.652Z,42.78
2023-03-17T16:26:39.051Z,42.91
2023-03-17T16:28:16.486Z,43.2
2023-03-17T16:29:56.845Z,43.53
2023-03-17T16:31:37.357Z,44.81
2023-03-17T16:33:17.647Z,44.22
2023-03-17T16:34:58.037Z,45.51
2023-03-17T16:36:38.399Z,46.6
2023-03-17T16:38:18.730Z,47.04
2023-03-17T16:39:59.170Z,46.35
2023-03-17T16:41:39.536Z,46.18
2023-03-17T16:43:25.296Z,47.59
2023-03-17T16:45:00.286Z,48.72
2023-03-17T16:46:40.662Z,49.46
2023-03-17T16:48:21.011Z,49.95
2023-03-17T16:50:01.358Z,51.26
2023-03-17T16:51:41.701Z,50.73
2023-03-17T16:53:21.997Z,51.26
2023-03-17T16:55:02.410Z,51.15
2023-03-17T16:56:42.891Z,51.54
2023-03-17T16:58:23.110Z,51.52
2023-03-17T17:00:03.533Z,51.63
2023-03-17T17:01:43.963Z,52.09
2023-03-17T17:03:24.220Z,52.23
2023-03-17T17:05:04.590Z,52.38
2023-03-17T17:06:44.894Z,53.75
2023-03-17T17:08:25.237Z,53.75
2023-03-17T17:10:05.566Z,54.15
2023-03-17T17:11:45.855Z,54.27
2023-03-17T17:13:26.309Z,54.21
2023-03-17T17:15:06.767Z,54.21
2023-03-17T17:16:47.199Z,53.98
2023-03-17T17:18:27.621Z,54.59
2023-03-17T17:20:08.061Z,54.78
2023-03-17T17:21:48.476Z,54.53
2023-03-17T17:23:28.859Z,54.97
2023-03-17T17:25:09.320Z,54.96
2023-03-17T17:26:49.664Z,55.27
2023-03-17T17:28:29.997Z,55.12
2023-03-17T17:30:10.362Z,55.5
2023-03-17T17:31:50.932Z,55.85
2023-03-17T17:33:31.171Z,56.01
2023-03-17T17:35:11.520Z,55.84
2023-03-17T17:36:51.963Z,55.94
2023-03-17T17:38:32.329Z,56.35
2023-03-17T17:40:12.749Z,55.64
2023-03-17T17:41:53.165Z,55.63
2023-03-17T17:43:33.536Z,55.41
2023-03-17T17:45:13.761Z,56.15
2023-03-17T17:46:54.109Z,55.74
2023-03-17T17:48:34.365Z,55.79
2023-03-17T17:50:14.818Z,56.06
2023-03-17T17:51:55.199Z,55.98
2023-03-17T17:53:35.560Z,55.89
2023-03-17T17:55:15.954Z,56.27
2023-03-17T17:56:56.316Z,56.71
2023-03-17T17:58:36.704Z,57.32
2023-03-17T18:00:17.129Z,57.86
2023-03-17T18:01:57.461Z,58.05
2023-03-17T18:03:37.873Z,57.82
2023-03-17T18:05:18.265Z,57.36
2023-03-17T18:06:58.729Z,57.05
2023-03-17T18:08:39.058Z,56.94
2023-03-17T18:10:19.521Z,56.82
2023-03-17T18:11:59.828Z,57.12
2023-03-17T18:13:40.195Z,57.62
2023-03-17T18:15:20.614Z,57.32
2023-03-17T18:17:01.062Z,56.7
2023-03-17T18:18:41.456Z,57.8
2023-03-17T18:20:21.874Z,57.86
2023-03-17T18:22:02.296Z,58.8
2023-03-17T18:23:42.653Z,59.52
2023-03-17T18:25:23.041Z,59.58
2023-03-17T18:27:03.410Z,59.83
2023-03-17T18:28:43.822Z,60.04
2023-03-17T18:30:24.226Z,60.76
2023-03-17T18:32:04.631Z,61.45
2023-03-17T18:33:45.014Z,61.18
2023-03-17T18:35:25.464Z,60.86
2023-03-17T18:37:05.686Z,60.7
2023-03-17T18:38:46.041Z,60.6
2023-03-17T18:40:26.443Z,60.8
2023-03-17T18:42:06.783Z,60.71
2023-03-17T18:43:54.241Z,61.32
2023-03-17T18:45:27.624Z,61.84
2023-03-17T18:47:08.093Z,62.09
2023-03-17T18:48:48.556Z,62.42
2023-03-17T18:50:29.000Z,62.17
2023-03-17T18:52:09.348Z,62.17
2023-03-17T18:53:49.746Z,62.03
2023-03-17T18:55:30.086Z,61.81
2023-03-17T18:57:10.516Z,61.69
2023-03-17T18:58:50.834Z,62.11
2023-03-17T19:00:34.247Z,62.09
2023-03-17T19:02:11.565Z,62.21
2023-03-17T19:03:51.977Z,63
2023-03-17T19:05:32.309Z,63.37
2023-03-17T19:07:12.605Z,63.84
2023-03-17T19:08:52.993Z,63.81
2023-03-17T19:10:33.905Z,63.77
2023-03-17T19:12:13.738Z,64.19
2023-03-17T19:13:54.162Z,64.72
2023-03-17T19:15:34.614Z,65.06
2023-03-17T19:17:14.970Z,65.3
2023-03-17T19:18:55.346Z,65.94
2023-03-17T19:20:35.809Z,66.44
2023-03-17T19:22:16.230Z,66.25
2023-03-17T19:23:56.596Z,66.73
2023-03-17T19:25:36.958Z,66.43
2023-03-17T19:27:17.299Z,66.64
2023-03-17T19:28:57.651Z,66.85
2023-03-17T19:30:38.065Z,67.34
2023-03-17T19:32:18.531Z,67.75
2023-03-17T19:33:58.921Z,68.09
2023-03-17T19:35:39.384Z,67.4
2023-03-17T19:37:19.791Z,67.46
2023-03-17T19:39:00.116Z,67.24
2023-03-17T19:40:40.563Z,67.02
2023-03-17T19:42:20.973Z,67.38
2023-03-17T19:44:01.322Z,67.53
2023-03-17T19:45:41.734Z,67.31
2023-03-17T19:47:22.143Z,67.19
2023-03-17T19:49:02.535Z,66.86
2023-03-17T19:50:43.007Z,66.99
2023-03-17T19:52:23.424Z,68.26
2023-03-17T19:54:03.829Z,68.39
2023-03-17T19:55:44.241Z,68.54
2023-03-17T19:57:24.651Z,69.04
2023-03-17T19:59:05.075Z,68.85
2023-03-17T20:00:45.504Z,69.24
2023-03-17T20:02:25.971Z,69.08
2023-03-17T20:04:06.395Z,68.76
2023-03-17T20:05:46.724Z,68.33
2023-03-17T20:07:27.266Z,67.67
2023-03-17T20:09:07.605Z,67.23
2023-03-17T20:10:48.137Z,67.59
2023-03-17T20:12:28.417Z,67.1
2023-03-17T20:14:08.836Z,66.7
2023-03-17T20:15:49.336Z,66.16
2023-03-17T20:17:29.681Z,66.32
2023-03-17T20:19:10.065Z,67.13
2023-03-17T20:20:50.449Z,67.49
2023-03-17T20:22:30.852Z,68.05
2023-03-17T20:24:11.225Z,67.65
2023-03-17T20:25:51.691Z,67.65
2023-03-17T20:27:32.042Z,68.31
2023-03-17T20:29:12.448Z,68.26
2023-03-17T20:30:52.819Z,68.89
2023-03-17T20:32:33.311Z,69.16
2023-03-17T20:34:13.647Z,69.54
2023-03-17T20:35:54.057Z,69.88
2023-03-17T20:37:34.425Z,70.4
2023-03-17T20:39:14.829Z,70.61
2023-03-17T20:40:55.142Z,71.37
2023-03-17T20:42:35.566Z,71.93
2023-03-17T20:44:15.966Z,72.08
2023-03-17T20:45:56.280Z,72.09
2023-03-17T20:47:36.672Z,72.27
2023-03-17T20:49:17.108Z,72.14
2023-03-17T20:50:57.393Z,71.8
2023-03-17T20:52:37.694Z,71.27
2023-03-17T20:54:18.118Z,71.16
2023-03-17T20:55:58.466Z,71.29
2023-03-17T20:57:38.924Z,71.62
2023-03-17T20:59:22.437Z,71.99
2023-03-17T21:00:59.738Z,72.53
2023-03-17T21:02:40.205Z,72.79
2023-03-17T21:04:20.553Z,72.73
2023-03-17T21:06:00.946Z,72.5
2023-03-17T21:07:41.356Z,72.62
2023-03-17T21:09:21.756Z,72.55
2023-03-17T21:11:02.127Z,71.55
2023-03-17T21:12:42.590Z,71.23
2023-03-17T21:14:22.976Z,70.84
2023-03-17T21:16:03.503Z,70.86
2023-03-17T21:17:43.897Z,70.55
2023-03-17T21:19:24.363Z,70.8
2023-03-17T21:21:04.669Z,71.03
2023-03-17T21:22:45.013Z,71.17
2023-03-17T21:24:25.428Z,70.26
2023-03-17T21:26:05.780Z,70.18
2023-03-17T21:27:46.169Z,69.51
2023-03-17T21:29:26.598Z,69.44
2023-03-17T21:31:07.031Z,69.74
2023-03-17T21:32:47.528Z,69.63
2023-03-17T21:34:27.808Z,69.18
2023-03-17T21:36:08.170Z,69.11
2023-03-17T21:37:48.527Z,68.96